METAR KPGV 192355Z AUTO 04005KT 4SM -RA OVC005 03/02 A3012 RMK AO2 P0006 
METAR KPGV 192335Z AUTO 01004KT 4SM -RA BKN005 OVC028 03/02 A3014 RMK AO2 P0004 
METAR KPGV 192315Z AUTO 01005KT 3SM RA OVC005 03/02 A3014 RMK AO2 P0002 
METAR KPGV 192255Z AUTO 34004KT 5SM -RA OVC005 03/02 A3014 RMK AO2 P0004 
METAR KPGV 192235Z AUTO 36006KT 4SM -RA OVC005 03/02 A3011 RMK AO2 P0002 
METAR KPGV 192215Z AUTO 02008KT 5SM -RA OVC007 03/02 A3012 RMK AO2 P0001 
METAR KPGV 192155Z AUTO 36006KT 3SM RA OVC005 03/02 A3013 RMK AO2 P0010 
METAR KPGV 192135Z AUTO 36004KT 2SM RA OVC005 03/02 A3016 RMK AO2 P0006 
METAR KPGV 192115Z AUTO 36006KT 3SM RA SCT005 BKN009 OVC015 03/03 A3015 RMK AO2 P0002 
METAR KPGV 192055Z AUTO 01004KT 3SM -RA BKN007 BKN012 OVC032 03/02 A3015 RMK AO2 P0009 
METAR KPGV 192035Z AUTO 02004KT 2 1/2SM RA SCT007 BKN017 OVC060 03/02 A3015 RMK AO2 P0007 
METAR KPGV 192015Z AUTO 02004KT 3SM RA BKN007 BKN029 OVC060 03/02 A3016 RMK AO2 P0004 
METAR KPGV 191955Z AUTO 04004KT 4SM -RA SCT007 BKN041 OVC050 03/02 A3015 RMK AO2 P0005 
METAR KPGV 191935Z AUTO 04006KT 4SM RA SCT007 BKN035 OVC050 03/02 A3014 RMK AO2 P0003 
METAR KPGV 191915Z AUTO 06004KT 4SM -RA SCT007 BKN046 OVC060 03/02 A3014 RMK AO2 P0001 
METAR KPGV 191855Z AUTO 03006KT 4SM -RA SCT007 BKN034 OVC050 03/02 A3016 RMK AO2 P0005 
METAR KPGV 191835Z AUTO 03007KT 4SM RA SCT033 SCT046 OVC055 03/02 A3016 RMK AO2 P0004 
METAR KPGV 191815Z AUTO 01006KT 3SM -RA SCT010 SCT025 OVC060 03/02 A3020 RMK AO2 P0002 
METAR KPGV 191755Z AUTO 01008KT 3SM RA SCT010 BKN050 OVC070 03/02 A3019 RMK AO2 P0006 
METAR KPGV 191735Z AUTO 02006KT 4SM RA SCT036 SCT050 OVC070 04/03 A3020 RMK AO2 P0003 
METAR KPGV 191715Z AUTO 02006KT 4SM -RA BKN036 OVC048 04/03 A3020 RMK AO2 P0002 
METAR KPGV 191655Z AUTO 02006KT 3SM RA SCT036 SCT045 OVC050 04/03 A3021 RMK AO2 P0004 
METAR KPGV 191635Z AUTO 02008KT 5SM -RA OVC050 04/02 A3024 RMK AO2 P0001 
METAR KPGV 191615Z AUTO 02008KT 7SM -DZ OVC050 04/02 A3022 RMK AO2 
METAR KPGV 191555Z AUTO 03008KT 7SM -RA OVC050 05/02 A3021 RMK AO2 
METAR KPGV 191535Z AUTO 04005KT 10SM -RA OVC050 05/01 A3022 RMK AO2 
METAR KPGV 191515Z AUTO 03006KT 7SM -RA OVC050 05/01 A3022 RMK AO2 
METAR KPGV 191455Z AUTO 02005KT 7SM -RA BKN055 OVC070 05/01 A3023 RMK AO2 P0001 
METAR KPGV 191435Z AUTO 03004KT 7SM -RA BKN055 OVC070 06/02 A3021 RMK AO2 P0001 
METAR KPGV 191415Z AUTO 02003KT 7SM -DZ BKN055 OVC120 05/02 A3020 RMK AO2 
METAR KPGV 191355Z AUTO 04004KT 7SM -DZ SCT055 SCT120 05/02 A3019 RMK AO2 
METAR KPGV 191335Z AUTO 05003KT 7SM -RA BKN055 BKN080 BKN090 05/02 A3019 RMK AO2 
METAR KPGV 191315Z AUTO 02003KT 5SM -RA OVC055 05/02 A3020 RMK AO2 
METAR KPGV 191255Z AUTO 36003KT 5SM -RA OVC055 05/02 A3022 RMK AO2 P0001 
METAR KPGV 191235Z AUTO 35003KT 5SM -RA OVC055 05/02 A3022 RMK AO2 
METAR KPGV 191215Z AUTO 00000KT 7SM -RA OVC055 05/03 A3020 RMK AO2 
METAR KPGV 191155Z AUTO 00000KT 7SM -RA BKN060 OVC065 05/03 A3019 RMK AO2 P0001 
METAR KPGV 191135Z AUTO 00000KT 7SM -DZ SCT060 OVC065 05/03 A3019 RMK AO2 
METAR KPGV 191115Z AUTO 00000KT 7SM -DZ BKN060 OVC065 06/03 A3018 RMK AO2 
METAR KPGV 191055Z AUTO 00000KT 7SM -SN OVC060 06/03 A3019 RMK AO2 
METAR KPGV 191035Z AUTO 00000KT 10SM OVC060 05/02 A3020 RMK AO2 
METAR KPGV 191015Z AUTO 00000KT 10SM OVC060 05/02 A3019 RMK AO2 
METAR KPGV 190955Z AUTO 00000KT 10SM OVC060 06/02 A3019 RMK AO2 
METAR KPGV 190935Z AUTO 00000KT 10SM -RA OVC060 05/02 A3021 RMK AO2 
METAR KPGV 190915Z AUTO 00000KT 10SM -DZ OVC060 05/02 A3020 RMK AO2 
METAR KPGV 190855Z AUTO 26003KT 10SM -RA SCT060 BKN070 OVC100 05/02 A3019 RMK AO2 
METAR KPGV 190835Z AUTO 00000KT 10SM BKN070 BKN100 05/02 A3018 RMK AO2 
METAR KPGV 190815Z AUTO 00000KT 10SM SCT060 SCT075 BKN100 05/02 A3019 RMK AO2 
METAR KPGV 190755Z AUTO 00000KT 10SM -RA SCT060 OVC075 06/02 A3019 RMK AO2 P0001 
METAR KPGV 190735Z AUTO 00000KT 10SM -RA OVC075 06/02 A3021 RMK AO2 
METAR KPGV 190715Z AUTO 00000KT 10SM -RA BKN075 OVC085 06/01 A3021 RMK AO2 
METAR KPGV 190655Z AUTO 30003KT 10SM -RA SCT065 OVC080 06/01 A3021 RMK AO2 
METAR KPGV 190635Z AUTO 00000KT 10SM -RA OVC090 06/01 A3020 RMK AO2 
METAR KPGV 190615Z AUTO 00000KT 10SM BKN090 BKN110 06/01 A3019 RMK AO2 
METAR KPGV 190555Z AUTO 00000KT 10SM CLR 06/01 A3019 RMK AO2 
METAR KPGV 190535Z AUTO 00000KT 10SM CLR 06/01 A3018 RMK AO2 
METAR KPGV 190515Z AUTO 00000KT 10SM CLR 06/01 A3016 RMK AO2 
METAR KPGV 190455Z AUTO 00000KT 10SM CLR 06/00 A3016 RMK AO2 
METAR KPGV 190435Z AUTO 00000KT 10SM CLR 06/00 A3017 RMK AO2 
METAR KPGV 190415Z AUTO 24003KT 10SM BKN120 06/00 A3018 RMK AO2 
METAR KPGV 190355Z AUTO 24003KT 10SM BKN120 06/00 A3018 RMK AO2 
METAR KPGV 190335Z AUTO 00000KT 10SM CLR 06/00 A3017 RMK AO2 
METAR KPGV 190315Z AUTO 20004KT 10SM SCT090 SCT110 06/00 A3017 RMK AO2 
METAR KPGV 190255Z AUTO 19004KT 10SM OVC090 06/00 A3019 RMK AO2 
METAR KPGV 190235Z AUTO 00000KT 10SM OVC090 06/00 A3021 RMK AO2 
METAR KPGV 190215Z AUTO 00000KT 10SM OVC100 06/00 A3022 RMK AO2 
METAR KPGV 190155Z AUTO 00000KT 10SM OVC110 06/00 A3020 RMK AO2 
METAR KPGV 190135Z AUTO 18003KT 10SM BKN120 06/00 A3019 RMK AO2 
METAR KPGV 190115Z AUTO 00000KT 10SM BKN100 BKN120 06/00 A3020 RMK AO2 
METAR KPGV 190055Z AUTO 00000KT 10SM OVC100 06/01 A3021 RMK AO2 
METAR KPGV 190035Z AUTO 00000KT 10SM BKN110 06/01 A3021 RMK AO2 
METAR KPGV 190015Z AUTO 00000KT 10SM SCT120 06/00 A3021 RMK AO2 
METAR KPGV 182355Z AUTO 00000KT 10SM SCT120 06/00 A3019 RMK AO2 
METAR KPGV 182335Z AUTO 00000KT 10SM CLR 06/00 A3019 RMK AO2 
METAR KPGV 182315Z AUTO 00000KT 10SM CLR 06/00 A3017 RMK AO2 
METAR KPGV 182255Z AUTO 00000KT 10SM CLR 06/M01 A3018 RMK AO2 
METAR KPGV 182235Z AUTO 00000KT 10SM CLR 06/M01 A3019 RMK AO2 
METAR KPGV 182215Z AUTO 00000KT 10SM CLR 06/M01 A3021 RMK AO2 
METAR KPGV 182155Z AUTO 00000KT 10SM CLR 07/M01 A3020 RMK AO2 
METAR KPGV 182135Z AUTO 00000KT 10SM CLR 07/M01 A3020 RMK AO2 
METAR KPGV 182115Z AUTO 33003KT 10SM CLR 07/M02 A3021 RMK AO2 
METAR KPGV 182055Z AUTO 00000KT 10SM CLR 07/M02 A3022 RMK AO2 
METAR KPGV 182035Z AUTO 00000KT 10SM CLR 07/M02 A3021 RMK AO2 
METAR KPGV 182015Z AUTO 31004KT 10SM CLR 08/M02 A3021 RMK AO2 
METAR KPGV 181955Z AUTO 29003KT 10SM CLR 08/M02 A3021 RMK AO2 
METAR KPGV 181935Z AUTO 00000KT 10SM CLR 08/M03 A3020 RMK AO2 
METAR KPGV 181915Z AUTO 00000KT 10SM CLR 08/M03 A3020 RMK AO2 
METAR KPGV 181855Z AUTO 30003KT 10SM CLR 08/M03 A3021 RMK AO2 
METAR KPGV 181835Z AUTO 00000KT 10SM CLR 08/M03 A3020 RMK AO2 
METAR KPGV 181815Z AUTO 00000KT 10SM CLR 08/M03 A3021 RMK AO2 
METAR KPGV 181755Z AUTO 01005KT 10SM CLR 08/M03 A3022 RMK AO2 
METAR KPGV 181735Z AUTO 32003KT 10SM CLR 08/M03 A3023 RMK AO2 
METAR KPGV 181715Z AUTO 03003KT 10SM CLR 07/M03 A3024 RMK AO2 
METAR KPGV 181655Z AUTO 02007KT 10SM CLR 08/M03 A3025 RMK AO2 
METAR KPGV 181635Z AUTO 02004KT 10SM CLR 07/M03 A3025 RMK AO2 
METAR KPGV 181615Z AUTO 02006KT 10SM CLR 07/M03 A3027 RMK AO2 
METAR KPGV 181555Z AUTO 04009KT 10SM CLR 07/M03 A3027 RMK AO2 
METAR KPGV 181555Z AUTO 04009KT 10SM CLR 07/M03 A3027 RMK AO2